createdAt,value
2022-08-05T00:02:24.003Z,6.77
2022-08-05T00:04:55.108Z,4.57
2022-08-05T00:07:59.034Z,4.30
2022-08-05T00:10:10.987Z,8.83
2022-08-05T00:12:55.883Z,6.20
2022-08-05T00:15:55.249Z,6.60
2022-08-05T00:18:22.545Z,5.60
2022-08-05T00:20:50.640Z,8.70
2022-08-05T00:23:44.415Z,11.03
2022-08-05T00:26:05.829Z,6.67
2022-08-05T00:28:33.293Z,8.23
2022-08-05T00:31:02.824Z,6.97
2022-08-05T00:34:54.892Z,9.23
2022-08-05T00:37:10.847Z,9.47
2022-08-05T00:39:13.742Z,6.63
2022-08-05T00:41:51.640Z,6.43
2022-08-05T00:44:20.923Z,10.33
2022-08-05T00:46:54.116Z,8.20
2022-08-05T00:49:32.498Z,7.47
2022-08-05T00:52:00.364Z,6.07
2022-08-05T00:54:30.111Z,6.40
2022-08-05T00:56:58.080Z,5.80
2022-08-05T00:59:25.554Z,8.27
2022-08-05T01:02:02.110Z,6.33
2022-08-05T01:04:30.907Z,8.83
2022-08-05T01:06:58.472Z,6.53
2022-08-05T01:09:26.319Z,8.40
2022-08-05T01:12:09.104Z,5.07
2022-08-05T01:14:41.542Z,6.80
2022-08-05T01:17:11.826Z,7.47
2022-08-05T01:20:00.681Z,4.70
2022-08-05T01:22:41.673Z,6.60
2022-08-05T01:25:40.077Z,5.23
2022-08-05T01:28:18.922Z,4.60
2022-08-05T01:30:53.947Z,4.30
2022-08-05T01:33:25.188Z,6.83
2022-08-05T01:35:54.817Z,5.67
2022-08-05T01:38:29.155Z,7.20
2022-08-05T01:40:58.395Z,4.73
2022-08-05T01:43:28.353Z,6.50
2022-08-05T01:45:56.913Z,5.00
2022-08-05T01:48:25.065Z,6.10
2022-08-05T01:50:53.249Z,4.27
2022-08-05T01:53:57.886Z,6.60
2022-08-05T01:56:10.488Z,5.90
2022-08-05T01:58:40.928Z,3.97
2022-08-05T02:01:14.201Z,4.23
2022-08-05T02:03:45.931Z,3.97
2022-08-05T02:06:33.844Z,4.13
2022-08-05T02:09:01.252Z,4.07
2022-08-05T02:11:34.129Z,3.90
2022-08-05T02:14:06.227Z,6.40
2022-08-05T02:16:35.661Z,7.97
2022-08-05T02:19:08.114Z,4.70
2022-08-05T02:21:43.144Z,4.47
2022-08-05T02:24:18.137Z,4.00
2022-08-05T02:26:53.841Z,3.60
2022-08-05T02:29:59.022Z,4.87
2022-08-05T02:32:23.708Z,3.83
2022-08-05T02:34:56.645Z,5.23
2022-08-05T02:37:25.487Z,5.83
2022-08-05T02:39:53.405Z,5.10
2022-08-05T02:42:27.653Z,6.80
2022-08-05T02:45:00.727Z,3.93
2022-08-05T02:48:07.033Z,3.43
2022-08-05T02:50:18.208Z,10.83
2022-08-05T02:52:46.392Z,4.63
2022-08-05T02:55:14.499Z,5.10
2022-08-05T02:58:20.246Z,5.27
2022-08-05T03:00:34.662Z,6.70
2022-08-05T03:03:10.147Z,5.83
2022-08-05T03:06:56.393Z,9.67
2022-08-05T03:08:29.544Z,9.30
2022-08-05T03:11:53.348Z,7.30
2022-08-05T03:13:51.466Z,7.47
2022-08-05T03:16:32.129Z,6.70
2022-08-05T03:19:00.173Z,11.63
2022-08-05T03:21:28.698Z,9.53
2022-08-05T03:23:56.726Z,7.53
2022-08-05T03:26:31.000Z,6.90
2022-08-05T03:29:00.200Z,7.00
2022-08-05T03:31:55.960Z,6.70
2022-08-05T03:34:17.743Z,12.07
2022-08-05T03:36:45.545Z,6.50
2022-08-05T03:39:19.895Z,9.90
2022-08-05T03:41:56.130Z,8.07
2022-08-05T03:44:24.071Z,7.80
2022-08-05T03:46:51.555Z,6.47
2022-08-05T03:49:20.405Z,9.33
2022-08-05T03:52:48.882Z,10.23
2022-08-05T03:55:34.061Z,11.40
2022-08-05T03:57:41.403Z,7.70
2022-08-05T04:00:10.763Z,11.67
2022-08-05T04:02:52.305Z,14.60
2022-08-05T04:05:28.133Z,10.77
2022-08-05T04:08:02.148Z,11.83
2022-08-05T04:10:37.541Z,10.03
2022-08-05T04:13:06.143Z,11.20
2022-08-05T04:15:36.496Z,10.87
2022-08-05T04:18:07.067Z,10.30
2022-08-05T04:20:36.639Z,11.93
2022-08-05T04:23:04.131Z,11.33
2022-08-05T04:25:56.500Z,12.67
2022-08-05T04:28:19.406Z,12.97
2022-08-05T04:30:46.957Z,12.00
2022-08-05T04:33:15.945Z,11.53
2022-08-05T04:36:15.972Z,13.07
2022-08-05T04:38:39.714Z,15.43
2022-08-05T04:41:09.452Z,15.50
2022-08-05T04:43:37.575Z,12.53
2022-08-05T04:46:08.115Z,13.27
2022-08-05T04:48:36.396Z,12.33
2022-08-05T04:51:11.459Z,9.50
2022-08-05T04:53:39.199Z,11.27
2022-08-05T04:56:33.769Z,11.50
2022-08-05T04:58:54.755Z,14.93
2022-08-05T05:02:05.725Z,10.50
2022-08-05T05:04:10.056Z,10.30
2022-08-05T05:06:44.715Z,9.67
2022-08-05T05:09:14.277Z,9.83
2022-08-05T05:11:53.964Z,13.10
2022-08-05T05:14:31.365Z,13.50
2022-08-05T05:16:59.305Z,14.20
2022-08-05T05:19:36.617Z,14.53
2022-08-05T05:22:24.015Z,15.17
2022-08-05T05:24:58.119Z,15.67
2022-08-05T05:27:45.377Z,21.20
2022-08-05T05:30:29.292Z,15.57
2022-08-05T05:33:00.140Z,16.77
2022-08-05T05:35:29.174Z,20.67
2022-08-05T05:38:05.643Z,19.70
2022-08-05T05:40:36.524Z,23.10
2022-08-05T05:43:04.026Z,23.63
2022-08-05T05:45:36.119Z,24.83
2022-08-05T05:48:16.180Z,26.67
2022-08-05T05:50:44.345Z,22.50
2022-08-05T05:53:21.027Z,21.93
2022-08-05T05:55:52.112Z,25.73
2022-08-05T05:58:30.320Z,24.93
2022-08-05T06:01:04.905Z,25.67
2022-08-05T06:04:00.462Z,27.40
2022-08-05T06:06:31.089Z,30.07
2022-08-05T06:09:02.124Z,29.33
2022-08-05T06:11:31.622Z,30.43
2022-08-05T06:14:00.322Z,30.10
2022-08-05T06:16:36.677Z,31.90
2022-08-05T06:19:05.653Z,29.50
2022-08-05T06:21:37.000Z,29.00
2022-08-05T06:24:11.489Z,28.63
2022-08-05T06:26:39.827Z,25.37
2022-08-05T06:29:24.963Z,28.57
2022-08-05T06:32:26.110Z,28.43
2022-08-05T06:34:56.855Z,29.10
2022-08-05T06:37:58.060Z,27.80
2022-08-05T06:40:21.088Z,30.50
2022-08-05T06:42:51.998Z,30.67
2022-08-05T06:45:20.876Z,36.30
2022-08-05T06:48:37.162Z,31.10
2022-08-05T06:50:36.640Z,32.17
2022-08-05T06:53:19.518Z,32.00
2022-08-05T06:55:51.653Z,34.07
2022-08-05T06:58:34.837Z,34.47
2022-08-05T07:01:04.442Z,33.60
2022-08-05T07:03:33.191Z,34.27
2022-08-05T07:06:05.384Z,39.00
2022-08-05T07:08:33.809Z,34.60
2022-08-05T07:11:02.917Z,36.67
2022-08-05T07:13:58.834Z,38.37
2022-08-05T07:18:01.163Z,40.20
2022-08-05T07:20:31.255Z,36.00
2022-08-05T07:22:28.518Z,36.20
2022-08-05T07:24:57.640Z,37.23
2022-08-05T07:27:59.573Z,38.90
2022-08-05T07:30:24.186Z,40.17
2022-08-05T07:32:58.057Z,43.63
2022-08-05T07:36:03.940Z,39.33
2022-08-05T07:38:33.472Z,46.60
2022-08-05T07:41:17.191Z,47.03
2022-08-05T07:43:50.549Z,51.30
2022-08-05T07:46:20.791Z,46.23
2022-08-05T07:49:04.306Z,55.60
2022-08-05T07:51:37.135Z,49.97
2022-08-05T07:54:10.134Z,55.40
2022-08-05T07:57:14.011Z,51.40
2022-08-05T07:59:40.184Z,53.20
2022-08-05T08:02:15.315Z,53.10
2022-08-05T08:04:45.307Z,57.80
2022-08-05T08:07:13.132Z,64.73
2022-08-05T08:09:40.562Z,50.90
2022-08-05T08:12:27.199Z,57.70
2022-08-05T08:14:57.114Z,56.33
2022-08-05T08:17:30.424Z,52.27
2022-08-05T08:20:22.669Z,62.63
2022-08-05T08:22:51.059Z,53.90
2022-08-05T08:25:26.441Z,56.20
2022-08-05T08:28:03.435Z,53.63
2022-08-05T08:30:40.783Z,55.60
2022-08-05T08:33:15.574Z,51.90
2022-08-05T08:35:52.405Z,54.30
2022-08-05T08:38:35.308Z,54.30
2022-08-05T08:41:05.628Z,55.40
2022-08-05T08:45:23.704Z,51.30
2022-08-05T08:46:25.255Z,50.90
2022-08-05T08:49:06.093Z,52.07
2022-08-05T08:52:04.220Z,50.57
2022-08-05T08:54:31.517Z,46.63
2022-08-05T08:56:59.996Z,44.00
2022-08-05T08:59:33.642Z,39.37
2022-08-05T09:02:06.139Z,39.50
2022-08-05T09:04:58.604Z,30.63
2022-08-05T09:07:28.826Z,24.47
2022-08-05T09:09:57.062Z,26.43
2022-08-05T09:12:27.296Z,23.20
2022-08-05T09:15:04.101Z,30.97
2022-08-05T09:17:42.618Z,29.13
2022-08-05T09:20:20.895Z,29.10
2022-08-05T09:23:19.767Z,24.17
2022-08-05T09:26:02.193Z,27.20
2022-08-05T09:28:31.906Z,21.70
2022-08-05T09:31:23.354Z,21.97
2022-08-05T09:33:53.971Z,19.27
2022-08-05T09:36:21.775Z,16.80
2022-08-05T09:38:58.456Z,17.43
2022-08-05T09:41:26.504Z,16.77
2022-08-05T09:44:00.385Z,15.73
2022-08-05T09:46:28.993Z,13.50
2022-08-05T09:49:08.214Z,11.63
2022-08-05T09:51:48.915Z,11.47
2022-08-05T09:54:28.900Z,11.10
2022-08-05T09:56:57.489Z,15.53
2022-08-05T09:59:28.888Z,10.87
2022-08-05T10:02:02.649Z,11.83
2022-08-05T10:04:38.617Z,11.50
2022-08-05T10:07:20.026Z,12.00
2022-08-05T10:10:15.197Z,12.13
2022-08-05T10:12:49.737Z,12.67
2022-08-05T10:15:20.314Z,11.60
2022-08-05T10:18:05.593Z,11.97
2022-08-05T10:20:38.427Z,11.03
2022-08-05T10:23:08.995Z,11.73
2022-08-05T10:25:53.673Z,10.83
2022-08-05T10:28:29.146Z,11.03
2022-08-05T10:32:59.322Z,13.50
2022-08-05T10:33:45.837Z,12.37
2022-08-05T10:36:23.609Z,11.67
2022-08-05T10:38:56.747Z,11.60
2022-08-05T10:41:29.084Z,9.50
2022-08-05T10:44:17.084Z,11.20
2022-08-05T10:46:45.619Z,9.10
2022-08-05T10:49:16.515Z,7.60
2022-08-05T10:51:57.761Z,7.47
2022-08-05T10:54:46.994Z,6.53
2022-08-05T10:57:26.779Z,5.97
2022-08-05T11:00:17.867Z,5.90
2022-08-05T11:03:24.476Z,6.10
2022-08-05T11:06:16.184Z,5.40
2022-08-05T11:09:03.981Z,5.00
2022-08-05T11:11:44.858Z,6.47
2022-08-05T11:14:42.902Z,4.80
2022-08-05T11:18:07.475Z,4.90
2022-08-05T11:20:37.479Z,4.50
2022-08-05T11:23:33.538Z,4.23
2022-08-05T11:26:04.942Z,4.87
2022-08-05T11:28:47.998Z,3.80
2022-08-05T11:31:57.908Z,10.10
2022-08-05T11:34:14.677Z,6.07
2022-08-05T11:36:46.875Z,4.03
2022-08-05T11:39:38.906Z,4.20
2022-08-05T11:42:07.579Z,3.93
2022-08-05T11:44:53.913Z,6.97
2022-08-05T11:47:48.777Z,5.90
2022-08-05T11:50:10.259Z,3.40
2022-08-05T11:52:43.828Z,3.30
2022-08-05T11:55:13.699Z,4.30
2022-08-05T11:58:09.878Z,3.80
2022-08-05T12:00:38.381Z,6.63
2022-08-05T12:03:28.529Z,7.47
2022-08-05T12:05:59.635Z,3.60
2022-08-05T12:08:27.465Z,7.23
2022-08-05T12:10:56.864Z,3.43
2022-08-05T12:13:49.027Z,3.50
2022-08-05T12:16:18.831Z,3.90
2022-08-05T12:18:52.186Z,5.90
2022-08-05T12:21:23.626Z,3.83
2022-08-05T12:23:55.672Z,4.30
2022-08-05T12:26:23.941Z,6.10
2022-08-05T12:28:51.840Z,5.40
2022-08-05T12:31:32.613Z,4.90
2022-08-05T12:34:01.476Z,5.70
2022-08-05T12:36:31.452Z,3.33
2022-08-05T12:38:59.278Z,3.20
2022-08-05T12:41:34.346Z,7.03
2022-08-05T12:44:03.004Z,4.30
2022-08-05T12:46:32.442Z,4.40
2022-08-05T12:49:01.546Z,3.13
2022-08-05T12:52:13.649Z,3.93
2022-08-05T12:54:36.731Z,3.13
2022-08-05T12:57:09.331Z,2.83
2022-08-05T13:00:08.827Z,3.50
2022-08-05T13:02:33.170Z,4.13
2022-08-05T13:05:00.677Z,2.83
2022-08-05T13:07:59.645Z,2.40
2022-08-05T13:10:19.833Z,4.40
2022-08-05T13:12:57.128Z,3.90
2022-08-05T13:15:41.259Z,2.83
2022-08-05T13:18:19.473Z,3.50
2022-08-05T13:20:49.428Z,6.17
2022-08-05T13:23:18.055Z,2.80
2022-08-05T13:25:51.614Z,3.63
2022-08-05T13:28:26.582Z,4.93
2022-08-05T13:30:54.143Z,4.67
2022-08-05T13:34:23.016Z,4.00
2022-08-05T13:36:10.984Z,3.07
2022-08-05T13:38:42.717Z,3.03
2022-08-05T13:41:10.560Z,3.27
2022-08-05T13:43:44.852Z,7.23
2022-08-05T13:46:44.392Z,3.60
2022-08-05T13:49:11.848Z,4.10
2022-08-05T13:51:40.849Z,3.97
2022-08-05T13:54:11.740Z,3.50
2022-08-05T13:56:45.144Z,4.80
2022-08-05T13:59:20.131Z,3.83
2022-08-05T14:01:59.068Z,3.60
2022-08-05T14:04:51.330Z,4.17
2022-08-05T14:07:26.073Z,4.83
2022-08-05T14:10:08.417Z,4.27
2022-08-05T14:12:36.149Z,4.53
2022-08-05T14:16:03.938Z,4.63
2022-08-05T14:17:51.249Z,7.13
2022-08-05T14:20:27.439Z,4.97
2022-08-05T14:22:55.098Z,6.53
2022-08-05T14:25:28.231Z,5.10
2022-08-05T14:27:56.399Z,5.33
2022-08-05T14:30:26.513Z,6.90
2022-08-05T14:32:54.286Z,4.70
2022-08-05T14:35:50.038Z,5.17
2022-08-05T14:38:27.855Z,9.20
2022-08-05T14:41:01.294Z,4.77
2022-08-05T14:43:59.271Z,5.00
2022-08-05T14:46:16.314Z,5.10
2022-08-05T14:48:43.975Z,4.33
2022-08-05T14:51:17.706Z,4.30
2022-08-05T14:54:27.150Z,4.80
2022-08-05T14:56:34.294Z,4.57
2022-08-05T14:59:05.588Z,5.00
2022-08-05T15:01:48.463Z,4.60
2022-08-05T15:04:16.938Z,5.27
2022-08-05T15:06:49.406Z,4.93
2022-08-05T15:09:50.511Z,4.47
2022-08-05T15:12:06.749Z,3.83
2022-08-05T15:14:48.429Z,4.30
2022-08-05T15:17:45.737Z,4.37
2022-08-05T15:20:06.160Z,3.93
2022-08-05T15:22:34.144Z,4.10
2022-08-05T15:25:11.499Z,4.90
2022-08-05T15:27:42.960Z,6.27
2022-08-05T15:30:19.785Z,4.10
2022-08-05T15:32:47.330Z,3.80
2022-08-05T15:35:15.036Z,3.73
2022-08-05T15:38:08.491Z,3.90
2022-08-05T15:41:03.269Z,5.10
2022-08-05T15:43:21.069Z,3.73
2022-08-05T15:46:00.189Z,4.53
2022-08-05T15:48:28.704Z,6.43
2022-08-05T15:50:56.475Z,4.03
2022-08-05T15:53:26.464Z,3.30
2022-08-05T15:56:03.377Z,7.07
2022-08-05T15:58:35.575Z,4.03
2022-08-05T16:01:16.331Z,3.40
2022-08-05T16:03:50.576Z,3.00
2022-08-05T16:06:19.890Z,4.57
2022-08-05T16:08:47.997Z,5.13
2022-08-05T16:11:21.108Z,5.53
2022-08-05T16:14:07.587Z,2.73
2022-08-05T16:16:36.609Z,2.93
2022-08-05T16:19:04.823Z,2.70
2022-08-05T16:22:00.446Z,3.23
2022-08-05T16:24:34.953Z,2.90
2022-08-05T16:27:08.741Z,3.13
2022-08-05T16:29:37.344Z,5.50
2022-08-05T16:32:06.352Z,2.50
2022-08-05T16:34:33.841Z,3.90
2022-08-05T16:37:01.375Z,5.40
2022-08-05T16:40:05.720Z,2.10
2022-08-05T16:42:36.565Z,1.90
2022-08-05T16:45:06.028Z,2.10
2022-08-05T16:47:53.459Z,2.00
2022-08-05T16:50:23.840Z,2.23
2022-08-05T16:52:51.268Z,6.70
2022-08-05T16:55:20.543Z,2.17
2022-08-05T16:57:53.179Z,1.70
2022-08-05T17:00:34.992Z,3.80
2022-08-05T17:03:15.329Z,1.80
2022-08-05T17:05:51.796Z,1.60
2022-08-05T17:08:35.974Z,2.03
2022-08-05T17:11:12.872Z,1.73
2022-08-05T17:13:45.932Z,4.50
2022-08-05T17:16:29.616Z,1.70
2022-08-05T17:19:00.663Z,3.17
2022-08-05T17:21:35.415Z,1.57
2022-08-05T17:24:18.397Z,1.77
2022-08-05T17:26:52.324Z,1.73
2022-08-05T17:29:22.247Z,3.13
2022-08-05T17:31:56.919Z,1.70
2022-08-05T17:34:29.690Z,3.90
2022-08-05T17:36:59.524Z,1.40
2022-08-05T17:39:34.039Z,1.40
2022-08-05T17:42:19.984Z,1.30
2022-08-05T17:44:51.399Z,1.53
2022-08-05T17:47:22.148Z,2.30
2022-08-05T17:49:52.139Z,1.30
2022-08-05T17:52:28.933Z,2.73
2022-08-05T17:54:56.427Z,1.40
2022-08-05T17:57:24.526Z,2.30
2022-08-05T18:00:05.002Z,1.73
2022-08-05T18:02:33.390Z,1.30
2022-08-05T18:05:03.150Z,3.03
2022-08-05T18:07:41.288Z,2.30
2022-08-05T18:10:10.948Z,3.07
2022-08-05T18:12:38.813Z,1.40
2022-08-05T18:15:08.753Z,1.83
2022-08-05T18:17:59.540Z,1.40
2022-08-05T18:20:29.653Z,1.20
2022-08-05T18:23:00.749Z,1.07
2022-08-05T18:25:38.980Z,1.33
2022-08-05T18:28:06.875Z,1.57
2022-08-05T18:30:35.960Z,1.00
2022-08-05T18:33:07.366Z,2.50
2022-08-05T18:36:00.911Z,1.20
2022-08-05T18:38:26.174Z,2.33
2022-08-05T18:41:57.641Z,1.10
2022-08-05T18:43:42.931Z,2.37
2022-08-05T18:46:20.267Z,1.20
2022-08-05T18:48:51.834Z,3.23
2022-08-05T18:52:04.499Z,1.67
2022-08-05T18:54:25.106Z,3.53
2022-08-05T18:56:52.531Z,1.20
2022-08-05T18:59:44.113Z,2.93
2022-08-05T19:02:11.418Z,3.97
2022-08-05T19:05:02.210Z,2.43
2022-08-05T19:07:46.021Z,1.80
2022-08-05T19:10:14.259Z,1.57
2022-08-05T19:12:41.718Z,1.13
2022-08-05T19:15:57.388Z,4.57
2022-08-05T19:18:09.575Z,3.80
2022-08-05T19:20:41.699Z,3.60
2022-08-05T19:24:04.561Z,1.27
2022-08-05T19:26:02.987Z,1.50
2022-08-05T19:28:30.725Z,1.70
2022-08-05T19:30:58.181Z,2.20
2022-08-05T19:33:35.437Z,1.50
2022-08-05T19:36:06.018Z,1.50
2022-08-05T19:38:35.670Z,2.40
2022-08-05T19:41:07.263Z,1.53
2022-08-05T19:44:05.327Z,3.83
2022-08-05T19:46:29.962Z,1.37
2022-08-05T19:49:01.153Z,1.40
2022-08-05T19:52:04.645Z,1.57
2022-08-05T19:54:25.517Z,1.47
2022-08-05T19:56:58.823Z,3.03
2022-08-05T20:00:00.386Z,1.33
2022-08-05T20:02:14.860Z,1.47
2022-08-05T20:04:48.500Z,1.20
2022-08-05T20:07:16.303Z,3.03
2022-08-05T20:10:11.489Z,1.60
2022-08-05T20:12:46.420Z,2.57
2022-08-05T20:15:47.958Z,2.53
2022-08-05T20:18:10.616Z,5.03
2022-08-05T20:20:55.173Z,1.40
2022-08-05T20:23:23.647Z,2.20
2022-08-05T20:26:06.365Z,1.67
2022-08-05T20:28:34.782Z,1.60
2022-08-05T20:31:03.767Z,1.80
2022-08-05T20:33:33.429Z,1.60
2022-08-05T20:36:03.275Z,2.60
2022-08-05T20:38:35.309Z,1.33
2022-08-05T20:41:04.691Z,1.40
2022-08-05T20:43:58.590Z,1.80
2022-08-05T20:46:25.219Z,2.43
2022-08-05T20:48:53.125Z,1.40
2022-08-05T20:51:23.587Z,1.80
2022-08-05T20:53:56.860Z,1.70
2022-08-05T20:56:29.941Z,1.70
2022-08-05T20:59:11.164Z,1.77
2022-08-05T21:01:45.961Z,2.63
2022-08-05T21:04:14.565Z,1.93
2022-08-05T21:06:45.601Z,1.70
2022-08-05T21:09:14.770Z,2.50
2022-08-05T21:12:08.080Z,1.60
2022-08-05T21:14:34.868Z,1.47
2022-08-05T21:17:02.943Z,1.70
2022-08-05T21:19:46.584Z,2.00
2022-08-05T21:22:18.271Z,1.53
2022-08-05T21:24:49.053Z,3.53
2022-08-05T21:27:20.414Z,1.83
2022-08-05T21:29:52.077Z,1.57
2022-08-05T21:32:21.530Z,1.63
2022-08-05T21:35:08.945Z,1.60
2022-08-05T21:37:41.519Z,1.80
2022-08-05T21:40:14.071Z,1.80
2022-08-05T21:42:45.068Z,2.83
2022-08-05T21:45:17.608Z,4.10
2022-08-05T21:47:56.671Z,1.80
2022-08-05T21:50:25.043Z,1.43
2022-08-05T21:52:59.128Z,1.70
2022-08-05T21:56:01.577Z,1.60
2022-08-05T21:58:20.180Z,1.40
2022-08-05T22:00:52.484Z,1.70
2022-08-05T22:03:48.752Z,1.70
2022-08-05T22:06:08.259Z,2.17
2022-08-05T22:08:37.220Z,1.80
2022-08-05T22:11:10.216Z,2.33
2022-08-05T22:14:33.978Z,2.40
2022-08-05T22:16:41.664Z,1.77
2022-08-05T22:20:01.265Z,2.33
2022-08-05T22:22:00.052Z,5.40
2022-08-05T22:24:51.861Z,1.60
2022-08-05T22:28:08.640Z,1.70
2022-08-05T22:30:25.503Z,3.97
2022-08-05T22:33:02.973Z,1.67
2022-08-05T22:35:47.754Z,1.53
2022-08-05T22:38:15.942Z,1.47
2022-08-05T22:40:49.342Z,1.50
2022-08-05T22:43:37.091Z,2.00
2022-08-05T22:46:12.060Z,3.70
2022-08-05T22:48:48.567Z,1.40
2022-08-05T22:51:22.797Z,1.70
2022-08-05T22:53:50.989Z,1.33
2022-08-05T22:56:30.203Z,2.70
2022-08-05T22:59:00.010Z,3.23
2022-08-05T23:02:03.864Z,1.50
2022-08-05T23:04:19.792Z,2.10
2022-08-05T23:06:47.781Z,1.60
2022-08-05T23:09:27.697Z,1.60
2022-08-05T23:12:04.744Z,1.70
2022-08-05T23:14:32.695Z,1.93
2022-08-05T23:17:23.984Z,1.60
2022-08-05T23:19:56.121Z,2.50
2022-08-05T23:22:24.527Z,2.07
2022-08-05T23:24:55.355Z,4.97
2022-08-05T23:27:24.285Z,3.17
2022-08-05T23:30:00.783Z,2.43
2022-08-05T23:32:28.743Z,2.47
2022-08-05T23:34:56.507Z,2.70
2022-08-05T23:37:24.004Z,2.20
2022-08-05T23:40:01.828Z,2.40
2022-08-05T23:42:37.833Z,2.47
2022-08-05T23:45:14.422Z,1.93
2022-08-05T23:47:47.845Z,1.77
2022-08-05T23:50:17.068Z,1.83
2022-08-05T23:52:49.852Z,2.10
2022-08-05T23:55:18.865Z,1.43
2022-08-05T23:57:48.990Z,1.50
